Sao Sepe, Brazil
Current Conditions -  °F | °C
As of 11:00 PM on Monday 20 Oct 2014 (Local Time) from SBSM Reporting Station
Clear Clear  
Wind Chill: 59°   Ceiling: Unl
Heat Index: 59°   Visibility: 6mi
Dew Point: 55°   Wind: 5mph
Humidity: 88%   Direction: 40°NE
Pressure: 30.12"   Gusts: NA
Location:  30.16°S, 53.57°W
Report Text: SBSM 210200Z 04004KT CAVOK 15/13 Q1020
Loading
Personal Weather Stations






























Interactive Weather Map
Tropical Storm Tracking
New forecast layout! Learn more

10-Day Weather Forecast

Advertisements
Track Severe Weather on mobile